sensor_id;sensor_type;location;lat;lon;timestamp;P1;durP1;ratioP1;P2;durP2;ratioP2
37451;SDS011;23314;51.114;6.900;2023-02-15T00:00:52;45.20;;;29.00;;
37451;SDS011;23314;51.114;6.900;2023-02-15T00:03:19;49.63;;;29.63;;
37451;SDS011;23314;51.114;6.900;2023-02-15T00:05:45;47.63;;;29.47;;
37451;SDS011;23314;51.114;6.900;2023-02-15T00:08:10;46.53;;;28.73;;
37451;SDS011;23314;51.114;6.900;2023-02-15T00:10:36;46.53;;;29.43;;
37451;SDS011;23314;51.114;6.900;2023-02-15T00:13:01;50.67;;;30.37;;
37451;SDS011;23314;51.114;6.900;2023-02-15T00:15:26;48.53;;;29.83;;
37451;SDS011;23314;51.114;6.900;2023-02-15T00:17:52;46.80;;;30.40;;
37451;SDS011;23314;51.114;6.900;2023-02-15T00:20:17;45.77;;;28.63;;
37451;SDS011;23314;51.114;6.900;2023-02-15T00:22:44;50.73;;;30.03;;
37451;SDS011;23314;51.114;6.900;2023-02-15T00:25:09;50.03;;;30.47;;
37451;SDS011;23314;51.114;6.900;2023-02-15T00:27:35;47.80;;;30.80;;
37451;SDS011;23314;51.114;6.900;2023-02-15T00:30:00;48.77;;;29.80;;
37451;SDS011;23314;51.114;6.900;2023-02-15T00:32:26;50.93;;;32.13;;
37451;SDS011;23314;51.114;6.900;2023-02-15T00:34:52;48.87;;;29.77;;
37451;SDS011;23314;51.114;6.900;2023-02-15T00:37:17;49.70;;;31.37;;
37451;SDS011;23314;51.114;6.900;2023-02-15T00:39:43;47.87;;;30.37;;
37451;SDS011;23314;51.114;6.900;2023-02-15T00:42:08;54.10;;;31.60;;
37451;SDS011;23314;51.114;6.900;2023-02-15T00:44:33;50.30;;;30.20;;
37451;SDS011;23314;51.114;6.900;2023-02-15T00:46:59;55.30;;;31.67;;
37451;SDS011;23314;51.114;6.900;2023-02-15T00:49:24;51.90;;;31.50;;
37451;SDS011;23314;51.114;6.900;2023-02-15T00:51:49;52.43;;;32.30;;
37451;SDS011;23314;51.114;6.900;2023-02-15T00:54:15;53.23;;;32.87;;
37451;SDS011;23314;51.114;6.900;2023-02-15T00:56:40;52.77;;;31.33;;
37451;SDS011;23314;51.114;6.900;2023-02-15T00:59:07;53.47;;;32.57;;
37451;SDS011;23314;51.114;6.900;2023-02-15T01:01:33;50.90;;;31.50;;
37451;SDS011;23314;51.114;6.900;2023-02-15T01:03:59;51.13;;;32.03;;
37451;SDS011;23314;51.114;6.900;2023-02-15T01:06:24;52.20;;;30.77;;
37451;SDS011;23314;51.114;6.900;2023-02-15T01:08:49;53.40;;;32.37;;
37451;SDS011;23314;51.114;6.900;2023-02-15T01:11:16;51.03;;;31.63;;
37451;SDS011;23314;51.114;6.900;2023-02-15T01:13:47;54.57;;;31.93;;
37451;SDS011;23314;51.114;6.900;2023-02-15T01:16:22;54.47;;;32.33;;
37451;SDS011;23314;51.114;6.900;2023-02-15T01:18:49;56.30;;;33.90;;
37451;SDS011;23314;51.114;6.900;2023-02-15T01:21:21;55.10;;;31.70;;
37451;SDS011;23314;51.114;6.900;2023-02-15T01:23:48;56.27;;;32.87;;
37451;SDS011;23314;51.114;6.900;2023-02-15T01:26:14;51.70;;;32.53;;
37451;SDS011;23314;51.114;6.900;2023-02-15T01:28:40;54.17;;;32.60;;
37451;SDS011;23314;51.114;6.900;2023-02-15T01:31:09;55.07;;;32.23;;
37451;SDS011;23314;51.114;6.900;2023-02-15T01:33:37;53.87;;;32.50;;
37451;SDS011;23314;51.114;6.900;2023-02-15T01:36:03;56.33;;;32.17;;
37451;SDS011;23314;51.114;6.900;2023-02-15T01:38:28;51.73;;;32.13;;
37451;SDS011;23314;51.114;6.900;2023-02-15T01:40:54;55.60;;;33.93;;
37451;SDS011;23314;51.114;6.900;2023-02-15T01:43:41;52.17;;;32.47;;
37451;SDS011;23314;51.114;6.900;2023-02-15T01:46:08;51.90;;;32.03;;
37451;SDS011;23314;51.114;6.900;2023-02-15T01:48:36;53.47;;;32.53;;
37451;SDS011;23314;51.114;6.900;2023-02-15T01:51:10;51.47;;;32.10;;
37451;SDS011;23314;51.114;6.900;2023-02-15T01:53:43;55.47;;;32.80;;
37451;SDS011;23314;51.114;6.900;2023-02-15T01:56:19;57.33;;;32.60;;
37451;SDS011;23314;51.114;6.900;2023-02-15T01:58:48;52.67;;;31.87;;
37451;SDS011;23314;51.114;6.900;2023-02-15T02:01:16;52.53;;;32.83;;
37451;SDS011;23314;51.114;6.900;2023-02-15T02:03:56;55.40;;;33.30;;
37451;SDS011;23314;51.114;6.900;2023-02-15T02:06:27;57.17;;;33.07;;
37451;SDS011;23314;51.114;6.900;2023-02-15T02:08:53;55.70;;;32.30;;
37451;SDS011;23314;51.114;6.900;2023-02-15T02:11:19;51.90;;;31.17;;
37451;SDS011;23314;51.114;6.900;2023-02-15T02:13:45;53.77;;;32.30;;
37451;SDS011;23314;51.114;6.900;2023-02-15T02:16:16;55.67;;;32.47;;
37451;SDS011;23314;51.114;6.900;2023-02-15T02:18:58;53.53;;;32.63;;
37451;SDS011;23314;51.114;6.900;2023-02-15T02:35:37;54.53;;;33.47;;
37451;SDS011;23314;51.114;6.900;2023-02-15T02:41:31;56.13;;;32.63;;
37451;SDS011;23314;51.114;6.900;2023-02-15T02:49:46;56.40;;;33.17;;
37451;SDS011;23314;51.114;6.900;2023-02-15T02:55:03;56.50;;;33.23;;
37451;SDS011;23314;51.114;6.900;2023-02-15T02:57:31;56.90;;;32.23;;
37451;SDS011;23314;51.114;6.900;2023-02-15T02:59:58;58.40;;;35.17;;
37451;SDS011;23314;51.114;6.900;2023-02-15T03:02:28;54.53;;;33.03;;
37451;SDS011;23314;51.114;6.900;2023-02-15T03:05:00;59.97;;;33.67;;
37451;SDS011;23314;51.114;6.900;2023-02-15T03:07:31;55.67;;;33.87;;
37451;SDS011;23314;51.114;6.900;2023-02-15T03:09:59;57.87;;;32.80;;
37451;SDS011;23314;51.114;6.900;2023-02-15T03:12:27;58.53;;;33.53;;
37451;SDS011;23314;51.114;6.900;2023-02-15T03:14:56;55.03;;;33.53;;
37451;SDS011;23314;51.114;6.900;2023-02-15T03:17:30;55.00;;;32.80;;
37451;SDS011;23314;51.114;6.900;2023-02-15T03:19:59;58.33;;;34.37;;
37451;SDS011;23314;51.114;6.900;2023-02-15T03:22:34;59.53;;;33.73;;
37451;SDS011;23314;51.114;6.900;2023-02-15T03:25:07;56.00;;;32.60;;
37451;SDS011;23314;51.114;6.900;2023-02-15T03:27:38;60.83;;;34.40;;
37451;SDS011;23314;51.114;6.900;2023-02-15T03:30:07;56.67;;;32.80;;
37451;SDS011;23314;51.114;6.900;2023-02-15T03:32:35;58.03;;;33.87;;
37451;SDS011;23314;51.114;6.900;2023-02-15T03:35:03;57.40;;;33.23;;
37451;SDS011;23314;51.114;6.900;2023-02-15T03:40:08;62.13;;;34.27;;
37451;SDS011;23314;51.114;6.900;2023-02-15T03:43:00;57.27;;;33.27;;
37451;SDS011;23314;51.114;6.900;2023-02-15T03:45:33;58.10;;;32.93;;
37451;SDS011;23314;51.114;6.900;2023-02-15T03:48:01;55.73;;;32.67;;
37451;SDS011;23314;51.114;6.900;2023-02-15T03:50:29;58.00;;;33.17;;
37451;SDS011;23314;51.114;6.900;2023-02-15T03:53:15;56.30;;;33.63;;
37451;SDS011;23314;51.114;6.900;2023-02-15T03:55:53;66.50;;;34.47;;
37451;SDS011;23314;51.114;6.900;2023-02-15T03:58:19;61.93;;;33.20;;
37451;SDS011;23314;51.114;6.900;2023-02-15T04:01:04;59.83;;;32.53;;
37451;SDS011;23314;51.114;6.900;2023-02-15T04:03:55;57.60;;;33.27;;
37451;SDS011;23314;51.114;6.900;2023-02-15T04:06:27;59.43;;;33.47;;
37451;SDS011;23314;51.114;6.900;2023-02-15T04:08:52;57.60;;;32.63;;
37451;SDS011;23314;51.114;6.900;2023-02-15T04:11:36;60.83;;;34.20;;
37451;SDS011;23314;51.114;6.900;2023-02-15T04:14:02;60.73;;;32.67;;
37451;SDS011;23314;51.114;6.900;2023-02-15T04:16:47;57.37;;;33.77;;
37451;SDS011;23314;51.114;6.900;2023-02-15T04:19:12;59.27;;;33.03;;
37451;SDS011;23314;51.114;6.900;2023-02-15T04:21:56;67.03;;;34.50;;
37451;SDS011;23314;51.114;6.900;2023-02-15T04:24:40;61.67;;;34.23;;
37451;SDS011;23314;51.114;6.900;2023-02-15T04:27:24;61.73;;;33.40;;
37451;SDS011;23314;51.114;6.900;2023-02-15T04:29:49;61.63;;;32.03;;
37451;SDS011;23314;51.114;6.900;2023-02-15T04:32:15;55.70;;;32.63;;
37451;SDS011;23314;51.114;6.900;2023-02-15T04:34:40;57.17;;;33.57;;
37451;SDS011;23314;51.114;6.900;2023-02-15T04:37:05;58.70;;;32.03;;
37451;SDS011;23314;51.114;6.900;2023-02-15T04:39:31;59.47;;;33.50;;
37451;SDS011;23314;51.114;6.900;2023-02-15T04:41:57;59.20;;;31.70;;
37451;SDS011;23314;51.114;6.900;2023-02-15T04:44:22;55.47;;;32.07;;
37451;SDS011;23314;51.114;6.900;2023-02-15T04:46:48;59.60;;;33.17;;
37451;SDS011;23314;51.114;6.900;2023-02-15T04:49:13;62.63;;;33.60;;
37451;SDS011;23314;51.114;6.900;2023-02-15T04:51:38;58.37;;;32.53;;
37451;SDS011;23314;51.114;6.900;2023-02-15T04:54:04;61.17;;;35.13;;
37451;SDS011;23314;51.114;6.900;2023-02-15T04:56:29;58.73;;;32.83;;
37451;SDS011;23314;51.114;6.900;2023-02-15T04:58:55;60.97;;;33.43;;
37451;SDS011;23314;51.114;6.900;2023-02-15T05:01:20;61.07;;;32.63;;
37451;SDS011;23314;51.114;6.900;2023-02-15T05:03:45;60.33;;;33.07;;
37451;SDS011;23314;51.114;6.900;2023-02-15T05:06:11;54.93;;;31.33;;
37451;SDS011;23314;51.114;6.900;2023-02-15T05:08:36;56.10;;;32.27;;
37451;SDS011;23314;51.114;6.900;2023-02-15T05:11:01;61.97;;;33.20;;
37451;SDS011;23314;51.114;6.900;2023-02-15T05:13:27;51.23;;;30.90;;
37451;SDS011;23314;51.114;6.900;2023-02-15T05:15:52;61.13;;;32.37;;
37451;SDS011;23314;51.114;6.900;2023-02-15T05:18:18;58.67;;;32.60;;
37451;SDS011;23314;51.114;6.900;2023-02-15T05:20:45;65.53;;;33.53;;
37451;SDS011;23314;51.114;6.900;2023-02-15T05:23:11;56.63;;;31.87;;
37451;SDS011;23314;51.114;6.900;2023-02-15T05:25:37;56.70;;;31.47;;
37451;SDS011;23314;51.114;6.900;2023-02-15T05:28:21;57.00;;;32.07;;
37451;SDS011;23314;51.114;6.900;2023-02-15T05:30:49;59.53;;;32.47;;
37451;SDS011;23314;51.114;6.900;2023-02-15T05:33:15;58.40;;;32.53;;
37451;SDS011;23314;51.114;6.900;2023-02-15T05:35:41;61.90;;;32.43;;
37451;SDS011;23314;51.114;6.900;2023-02-15T05:38:07;56.30;;;31.70;;
37451;SDS011;23314;51.114;6.900;2023-02-15T05:40:32;59.53;;;32.33;;
37451;SDS011;23314;51.114;6.900;2023-02-15T05:42:58;56.67;;;31.90;;
37451;SDS011;23314;51.114;6.900;2023-02-15T05:45:23;56.13;;;32.30;;
37451;SDS011;23314;51.114;6.900;2023-02-15T05:47:49;59.73;;;32.50;;
37451;SDS011;23314;51.114;6.900;2023-02-15T05:50:14;60.77;;;31.67;;
37451;SDS011;23314;51.114;6.900;2023-02-15T05:52:40;57.80;;;32.47;;
37451;SDS011;23314;51.114;6.900;2023-02-15T05:55:05;60.27;;;32.77;;
37451;SDS011;23314;51.114;6.900;2023-02-15T05:57:32;64.63;;;33.77;;
37451;SDS011;23314;51.114;6.900;2023-02-15T05:59:57;61.13;;;32.20;;
37451;SDS011;23314;51.114;6.900;2023-02-15T06:02:22;57.40;;;31.37;;
37451;SDS011;23314;51.114;6.900;2023-02-15T06:04:48;58.23;;;33.03;;
37451;SDS011;23314;51.114;6.900;2023-02-15T06:07:13;62.73;;;32.53;;
37451;SDS011;23314;51.114;6.900;2023-02-15T06:09:38;54.53;;;30.10;;
37451;SDS011;23314;51.114;6.900;2023-02-15T06:12:04;57.50;;;31.03;;
37451;SDS011;23314;51.114;6.900;2023-02-15T06:14:29;59.20;;;31.40;;
37451;SDS011;23314;51.114;6.900;2023-02-15T06:16:55;59.00;;;33.73;;
37451;SDS011;23314;51.114;6.900;2023-02-15T06:19:20;59.73;;;32.27;;
37451;SDS011;23314;51.114;6.900;2023-02-15T06:21:46;60.57;;;33.30;;
37451;SDS011;23314;51.114;6.900;2023-02-15T06:24:11;57.83;;;31.90;;
37451;SDS011;23314;51.114;6.900;2023-02-15T06:26:36;54.53;;;30.37;;
37451;SDS011;23314;51.114;6.900;2023-02-15T06:29:02;58.93;;;30.73;;
37451;SDS011;23314;51.114;6.900;2023-02-15T06:31:27;51.40;;;29.80;;
37451;SDS011;23314;51.114;6.900;2023-02-15T06:33:53;53.80;;;31.00;;
37451;SDS011;23314;51.114;6.900;2023-02-15T06:36:25;64.90;;;31.77;;
37451;SDS011;23314;51.114;6.900;2023-02-15T06:38:51;61.10;;;30.73;;
37451;SDS011;23314;51.114;6.900;2023-02-15T06:41:17;52.97;;;30.33;;
37451;SDS011;23314;51.114;6.900;2023-02-15T06:43:42;56.77;;;31.67;;
37451;SDS011;23314;51.114;6.900;2023-02-15T06:46:07;54.57;;;30.83;;
37451;SDS011;23314;51.114;6.900;2023-02-15T06:48:33;60.57;;;30.90;;
37451;SDS011;23314;51.114;6.900;2023-02-15T06:50:58;50.47;;;28.97;;
37451;SDS011;23314;51.114;6.900;2023-02-15T06:53:23;56.47;;;30.27;;
37451;SDS011;23314;51.114;6.900;2023-02-15T06:55:48;54.83;;;30.40;;
37451;SDS011;23314;51.114;6.900;2023-02-15T06:58:14;51.43;;;29.07;;
37451;SDS011;23314;51.114;6.900;2023-02-15T07:00:39;51.77;;;29.97;;
37451;SDS011;23314;51.114;6.900;2023-02-15T07:03:04;56.50;;;29.77;;
37451;SDS011;23314;51.114;6.900;2023-02-15T07:05:32;52.23;;;29.07;;
37451;SDS011;23314;51.114;6.900;2023-02-15T07:07:59;49.67;;;28.57;;
37451;SDS011;23314;51.114;6.900;2023-02-15T07:10:25;48.57;;;28.17;;
37451;SDS011;23314;51.114;6.900;2023-02-15T07:12:51;49.03;;;28.73;;
37451;SDS011;23314;51.114;6.900;2023-02-15T07:15:18;45.33;;;27.93;;
37451;SDS011;23314;51.114;6.900;2023-02-15T07:17:46;46.27;;;27.30;;
37451;SDS011;23314;51.114;6.900;2023-02-15T07:20:18;49.97;;;28.13;;
37451;SDS011;23314;51.114;6.900;2023-02-15T07:22:46;48.60;;;27.67;;
37451;SDS011;23314;51.114;6.900;2023-02-15T07:25:12;44.27;;;26.93;;
37451;SDS011;23314;51.114;6.900;2023-02-15T07:27:38;41.83;;;25.57;;
37451;SDS011;23314;51.114;6.900;2023-02-15T07:30:04;44.63;;;26.50;;
37451;SDS011;23314;51.114;6.900;2023-02-15T07:32:31;44.07;;;26.07;;
37451;SDS011;23314;51.114;6.900;2023-02-15T07:34:58;41.67;;;25.50;;
37451;SDS011;23314;51.114;6.900;2023-02-15T07:37:24;39.23;;;25.03;;
37451;SDS011;23314;51.114;6.900;2023-02-15T07:39:49;40.63;;;25.30;;
37451;SDS011;23314;51.114;6.900;2023-02-15T07:42:15;39.57;;;25.20;;
37451;SDS011;23314;51.114;6.900;2023-02-15T07:44:40;41.73;;;25.43;;
37451;SDS011;23314;51.114;6.900;2023-02-15T07:47:05;38.23;;;24.33;;
37451;SDS011;23314;51.114;6.900;2023-02-15T07:49:31;42.83;;;25.30;;
37451;SDS011;23314;51.114;6.900;2023-02-15T07:51:56;38.83;;;24.57;;
37451;SDS011;23314;51.114;6.900;2023-02-15T07:54:21;44.13;;;25.07;;
37451;SDS011;23314;51.114;6.900;2023-02-15T07:56:47;41.03;;;25.23;;
37451;SDS011;23314;51.114;6.900;2023-02-15T07:59:12;36.83;;;23.23;;
37451;SDS011;23314;51.114;6.900;2023-02-15T08:01:38;37.97;;;24.63;;
37451;SDS011;23314;51.114;6.900;2023-02-15T08:04:04;37.63;;;23.40;;
37451;SDS011;23314;51.114;6.900;2023-02-15T08:06:32;40.13;;;24.13;;
37451;SDS011;23314;51.114;6.900;2023-02-15T08:08:59;37.00;;;23.00;;
37451;SDS011;23314;51.114;6.900;2023-02-15T08:11:26;37.47;;;23.60;;
37451;SDS011;23314;51.114;6.900;2023-02-15T08:13:58;37.73;;;23.47;;
37451;SDS011;23314;51.114;6.900;2023-02-15T08:19:02;34.33;;;22.97;;
37451;SDS011;23314;51.114;6.900;2023-02-15T08:21:36;35.17;;;22.70;;
37451;SDS011;23314;51.114;6.900;2023-02-15T08:24:04;35.30;;;23.33;;
37451;SDS011;23314;51.114;6.900;2023-02-15T08:26:31;32.47;;;22.13;;
37451;SDS011;23314;51.114;6.900;2023-02-15T08:28:57;36.83;;;22.40;;
37451;SDS011;23314;51.114;6.900;2023-02-15T08:31:23;33.10;;;22.37;;
37451;SDS011;23314;51.114;6.900;2023-02-15T08:33:49;32.30;;;20.77;;
37451;SDS011;23314;51.114;6.900;2023-02-15T08:36:17;30.80;;;20.93;;
37451;SDS011;23314;51.114;6.900;2023-02-15T08:38:43;30.63;;;20.80;;
37451;SDS011;23314;51.114;6.900;2023-02-15T08:41:19;28.23;;;19.77;;
37451;SDS011;23314;51.114;6.900;2023-02-15T08:43:47;28.27;;;19.73;;
37451;SDS011;23314;51.114;6.900;2023-02-15T08:46:16;39.80;;;20.50;;
37451;SDS011;23314;51.114;6.900;2023-02-15T08:48:42;28.03;;;19.43;;
37451;SDS011;23314;51.114;6.900;2023-02-15T08:53:42;28.40;;;18.57;;
37451;SDS011;23314;51.114;6.900;2023-02-15T08:56:10;27.93;;;19.20;;
37451;SDS011;23314;51.114;6.900;2023-02-15T08:58:36;29.00;;;17.70;;
37451;SDS011;23314;51.114;6.900;2023-02-15T09:01:07;28.60;;;18.57;;
37451;SDS011;23314;51.114;6.900;2023-02-15T09:03:36;28.67;;;18.53;;
37451;SDS011;23314;51.114;6.900;2023-02-15T09:06:01;31.63;;;18.07;;
37451;SDS011;23314;51.114;6.900;2023-02-15T09:08:27;27.37;;;18.17;;
37451;SDS011;23314;51.114;6.900;2023-02-15T09:10:53;27.50;;;18.43;;
37451;SDS011;23314;51.114;6.900;2023-02-15T09:13:19;26.93;;;18.27;;
37451;SDS011;23314;51.114;6.900;2023-02-15T09:15:45;29.20;;;18.83;;
37451;SDS011;23314;51.114;6.900;2023-02-15T09:18:10;25.83;;;17.83;;
37451;SDS011;23314;51.114;6.900;2023-02-15T09:20:37;27.43;;;17.30;;
37451;SDS011;23314;51.114;6.900;2023-02-15T09:23:02;25.20;;;17.37;;
37451;SDS011;23314;51.114;6.900;2023-02-15T09:25:28;24.90;;;16.07;;
37451;SDS011;23314;51.114;6.900;2023-02-15T09:27:53;27.87;;;17.43;;
37451;SDS011;23314;51.114;6.900;2023-02-15T09:30:19;26.23;;;17.23;;
37451;SDS011;23314;51.114;6.900;2023-02-15T09:32:44;22.37;;;15.97;;
37451;SDS011;23314;51.114;6.900;2023-02-15T09:35:11;25.87;;;17.13;;
37451;SDS011;23314;51.114;6.900;2023-02-15T09:37:37;27.13;;;16.67;;
37451;SDS011;23314;51.114;6.900;2023-02-15T09:40:02;23.53;;;16.93;;
37451;SDS011;23314;51.114;6.900;2023-02-15T09:48:09;22.63;;;16.20;;
37451;SDS011;23314;51.114;6.900;2023-02-15T09:50:41;26.70;;;16.67;;
37451;SDS011;23314;51.114;6.900;2023-02-15T09:56:15;26.10;;;17.47;;
37451;SDS011;23314;51.114;6.900;2023-02-15T10:01:40;26.70;;;17.47;;
37451;SDS011;23314;51.114;6.900;2023-02-15T10:04:19;24.50;;;16.83;;
37451;SDS011;23314;51.114;6.900;2023-02-15T10:09:53;21.03;;;15.87;;
37451;SDS011;23314;51.114;6.900;2023-02-15T10:12:55;21.73;;;16.10;;
37451;SDS011;23314;51.114;6.900;2023-02-15T10:27:02;19.60;;;14.37;;
37451;SDS011;23314;51.114;6.900;2023-02-15T10:29:37;22.37;;;14.50;;
37451;SDS011;23314;51.114;6.900;2023-02-15T10:34:54;21.77;;;14.93;;
37451;SDS011;23314;51.114;6.900;2023-02-15T10:37:31;20.00;;;14.07;;
37451;SDS011;23314;51.114;6.900;2023-02-15T10:50:58;18.83;;;13.53;;
37451;SDS011;23314;51.114;6.900;2023-02-15T10:53:33;18.90;;;13.93;;
37451;SDS011;23314;51.114;6.900;2023-02-15T11:01:53;17.00;;;13.30;;
37451;SDS011;23314;51.114;6.900;2023-02-15T11:04:33;17.40;;;13.97;;
37451;SDS011;23314;51.114;6.900;2023-02-15T11:09:46;19.07;;;13.70;;
37451;SDS011;23314;51.114;6.900;2023-02-15T11:12:16;17.23;;;13.30;;
37451;SDS011;23314;51.114;6.900;2023-02-15T11:17:15;18.23;;;13.80;;
37451;SDS011;23314;51.114;6.900;2023-02-15T11:22:33;18.73;;;13.57;;
37451;SDS011;23314;51.114;6.900;2023-02-15T11:24:59;18.00;;;13.47;;
37451;SDS011;23314;51.114;6.900;2023-02-15T11:27:30;21.30;;;14.20;;
37451;SDS011;23314;51.114;6.900;2023-02-15T11:30:10;19.40;;;14.10;;
37451;SDS011;23314;51.114;6.900;2023-02-15T11:32:39;17.53;;;13.40;;
37451;SDS011;23314;51.114;6.900;2023-02-15T11:37:40;16.90;;;12.77;;
37451;SDS011;23314;51.114;6.900;2023-02-15T11:43:15;18.83;;;13.00;;
37451;SDS011;23314;51.114;6.900;2023-02-15T11:45:45;20.37;;;13.97;;
37451;SDS011;23314;51.114;6.900;2023-02-15T11:48:11;18.33;;;14.07;;
37451;SDS011;23314;51.114;6.900;2023-02-15T11:50:38;18.90;;;13.53;;
37451;SDS011;23314;51.114;6.900;2023-02-15T11:53:04;18.83;;;13.40;;
37451;SDS011;23314;51.114;6.900;2023-02-15T11:55:36;22.27;;;14.80;;
37451;SDS011;23314;51.114;6.900;2023-02-15T12:01:00;23.10;;;15.00;;
37451;SDS011;23314;51.114;6.900;2023-02-15T12:06:11;15.97;;;12.13;;
37451;SDS011;23314;51.114;6.900;2023-02-15T12:08:48;17.17;;;12.33;;
37451;SDS011;23314;51.114;6.900;2023-02-15T12:11:25;19.10;;;13.13;;
37451;SDS011;23314;51.114;6.900;2023-02-15T12:13:59;17.27;;;12.80;;
37451;SDS011;23314;51.114;6.900;2023-02-15T12:16:31;15.37;;;11.90;;
37451;SDS011;23314;51.114;6.900;2023-02-15T12:19:04;16.17;;;12.40;;
37451;SDS011;23314;51.114;6.900;2023-02-15T12:21:31;18.53;;;12.33;;
37451;SDS011;23314;51.114;6.900;2023-02-15T12:33:05;17.03;;;11.70;;
37451;SDS011;23314;51.114;6.900;2023-02-15T12:35:40;16.47;;;11.80;;
37451;SDS011;23314;51.114;6.900;2023-02-15T12:40:36;17.40;;;12.80;;
37451;SDS011;23314;51.114;6.900;2023-02-15T12:43:02;18.10;;;12.93;;
37451;SDS011;23314;51.114;6.900;2023-02-15T12:45:34;21.60;;;12.37;;
37451;SDS011;23314;51.114;6.900;2023-02-15T12:48:17;15.33;;;11.67;;
37451;SDS011;23314;51.114;6.900;2023-02-15T12:50:44;20.63;;;11.97;;
37451;SDS011;23314;51.114;6.900;2023-02-15T12:53:53;14.90;;;11.53;;
37451;SDS011;23314;51.114;6.900;2023-02-15T12:56:01;17.03;;;11.80;;
37451;SDS011;23314;51.114;6.900;2023-02-15T12:58:29;17.13;;;11.87;;
37451;SDS011;23314;51.114;6.900;2023-02-15T13:03:49;15.07;;;11.33;;
37451;SDS011;23314;51.114;6.900;2023-02-15T13:06:16;15.73;;;11.03;;
37451;SDS011;23314;51.114;6.900;2023-02-15T13:08:46;16.83;;;11.90;;
37451;SDS011;23314;51.114;6.900;2023-02-15T13:11:15;16.07;;;11.63;;
37451;SDS011;23314;51.114;6.900;2023-02-15T13:13:56;14.87;;;11.13;;
37451;SDS011;23314;51.114;6.900;2023-02-15T13:16:41;17.20;;;12.03;;
37451;SDS011;23314;51.114;6.900;2023-02-15T13:19:12;19.30;;;11.83;;
37451;SDS011;23314;51.114;6.900;2023-02-15T13:21:43;15.20;;;10.90;;
37451;SDS011;23314;51.114;6.900;2023-02-15T13:27:18;19.10;;;12.03;;
37451;SDS011;23314;51.114;6.900;2023-02-15T13:29:50;13.80;;;11.00;;
37451;SDS011;23314;51.114;6.900;2023-02-15T13:34:50;16.63;;;11.43;;
37451;SDS011;23314;51.114;6.900;2023-02-15T13:37:20;16.67;;;11.87;;
37451;SDS011;23314;51.114;6.900;2023-02-15T13:42:38;30.80;;;11.67;;
37451;SDS011;23314;51.114;6.900;2023-02-15T13:47:50;16.73;;;11.37;;
37451;SDS011;23314;51.114;6.900;2023-02-15T14:01:55;14.77;;;10.90;;
37451;SDS011;23314;51.114;6.900;2023-02-15T14:15:13;16.57;;;11.87;;
37451;SDS011;23314;51.114;6.900;2023-02-15T14:17:58;15.33;;;11.67;;
37451;SDS011;23314;51.114;6.900;2023-02-15T14:20:45;21.10;;;11.80;;
37451;SDS011;23314;51.114;6.900;2023-02-15T14:26:01;16.43;;;12.30;;
37451;SDS011;23314;51.114;6.900;2023-02-15T14:28:43;19.53;;;11.83;;
37451;SDS011;23314;51.114;6.900;2023-02-15T14:31:14;16.70;;;11.07;;
37451;SDS011;23314;51.114;6.900;2023-02-15T14:33:42;15.93;;;11.30;;
37451;SDS011;23314;51.114;6.900;2023-02-15T14:36:18;19.83;;;12.20;;
37451;SDS011;23314;51.114;6.900;2023-02-15T14:38:56;22.10;;;12.03;;
37451;SDS011;23314;51.114;6.900;2023-02-15T14:42:11;19.70;;;11.77;;
37451;SDS011;23314;51.114;6.900;2023-02-15T14:44:48;17.43;;;11.60;;
37451;SDS011;23314;51.114;6.900;2023-02-15T14:47:22;17.73;;;11.97;;
37451;SDS011;23314;51.114;6.900;2023-02-15T14:49:56;21.07;;;11.70;;
37451;SDS011;23314;51.114;6.900;2023-02-15T14:52:21;23.03;;;11.97;;
37451;SDS011;23314;51.114;6.900;2023-02-15T14:59:54;23.23;;;12.70;;
37451;SDS011;23314;51.114;6.900;2023-02-15T15:05:20;17.90;;;11.80;;
37451;SDS011;23314;51.114;6.900;2023-02-15T15:08:00;16.40;;;12.10;;
37451;SDS011;23314;51.114;6.900;2023-02-15T15:13:34;16.27;;;12.63;;
37451;SDS011;23314;51.114;6.900;2023-02-15T15:15:56;17.27;;;11.87;;
37451;SDS011;23314;51.114;6.900;2023-02-15T15:21:10;19.27;;;11.93;;
37451;SDS011;23314;51.114;6.900;2023-02-15T15:23:40;20.53;;;12.60;;
37451;SDS011;23314;51.114;6.900;2023-02-15T15:28:56;16.77;;;12.10;;
37451;SDS011;23314;51.114;6.900;2023-02-15T15:31:31;18.43;;;11.73;;
37451;SDS011;23314;51.114;6.900;2023-02-15T15:42:28;15.83;;;12.17;;
37451;SDS011;23314;51.114;6.900;2023-02-15T15:50:15;20.67;;;12.23;;
37451;SDS011;23314;51.114;6.900;2023-02-15T15:52:51;19.43;;;12.73;;
37451;SDS011;23314;51.114;6.900;2023-02-15T15:55:23;20.77;;;12.63;;
37451;SDS011;23314;51.114;6.900;2023-02-15T15:57:51;23.43;;;12.57;;
37451;SDS011;23314;51.114;6.900;2023-02-15T16:00:30;27.03;;;13.43;;
37451;SDS011;23314;51.114;6.900;2023-02-15T16:03:00;17.57;;;12.53;;
37451;SDS011;23314;51.114;6.900;2023-02-15T16:05:26;18.37;;;13.10;;
37451;SDS011;23314;51.114;6.900;2023-02-15T16:07:51;19.80;;;13.23;;
37451;SDS011;23314;51.114;6.900;2023-02-15T16:10:21;19.77;;;13.77;;
37451;SDS011;23314;51.114;6.900;2023-02-15T16:12:46;17.90;;;12.47;;
37451;SDS011;23314;51.114;6.900;2023-02-15T16:15:14;18.83;;;13.10;;
37451;SDS011;23314;51.114;6.900;2023-02-15T16:17:41;19.63;;;13.17;;
37451;SDS011;23314;51.114;6.900;2023-02-15T16:20:17;18.23;;;13.23;;
37451;SDS011;23314;51.114;6.900;2023-02-15T16:22:45;18.10;;;12.83;;
37451;SDS011;23314;51.114;6.900;2023-02-15T16:27:54;18.13;;;12.90;;
37451;SDS011;23314;51.114;6.900;2023-02-15T16:35:32;19.97;;;13.07;;
37451;SDS011;23314;51.114;6.900;2023-02-15T16:37:59;18.33;;;12.00;;
37451;SDS011;23314;51.114;6.900;2023-02-15T16:42:54;19.43;;;13.57;;
37451;SDS011;23314;51.114;6.900;2023-02-15T16:45:22;18.13;;;12.90;;
37451;SDS011;23314;51.114;6.900;2023-02-15T16:47:52;18.37;;;13.13;;
37451;SDS011;23314;51.114;6.900;2023-02-15T16:50:25;16.90;;;12.90;;
37451;SDS011;23314;51.114;6.900;2023-02-15T16:52:55;18.53;;;12.57;;
37451;SDS011;23314;51.114;6.900;2023-02-15T16:55:23;19.17;;;13.20;;
37451;SDS011;23314;51.114;6.900;2023-02-15T16:57:50;16.90;;;12.73;;
37451;SDS011;23314;51.114;6.900;2023-02-15T17:00:20;17.40;;;13.47;;
37451;SDS011;23314;51.114;6.900;2023-02-15T17:02:53;21.20;;;13.30;;
37451;SDS011;23314;51.114;6.900;2023-02-15T17:05:23;19.27;;;12.83;;
37451;SDS011;23314;51.114;6.900;2023-02-15T17:07:50;22.00;;;14.03;;
37451;SDS011;23314;51.114;6.900;2023-02-15T17:10:32;20.67;;;14.90;;
37451;SDS011;23314;51.114;6.900;2023-02-15T17:13:09;20.53;;;13.67;;
37451;SDS011;23314;51.114;6.900;2023-02-15T17:15:37;18.97;;;14.23;;
37451;SDS011;23314;51.114;6.900;2023-02-15T17:18:05;18.07;;;13.60;;
37451;SDS011;23314;51.114;6.900;2023-02-15T17:20:36;18.07;;;13.83;;
37451;SDS011;23314;51.114;6.900;2023-02-15T17:23:03;16.43;;;13.37;;
37451;SDS011;23314;51.114;6.900;2023-02-15T17:25:34;19.70;;;14.43;;
37451;SDS011;23314;51.114;6.900;2023-02-15T17:28:02;20.47;;;15.23;;
37451;SDS011;23314;51.114;6.900;2023-02-15T17:30:33;23.07;;;14.63;;
37451;SDS011;23314;51.114;6.900;2023-02-15T17:33:03;25.47;;;14.27;;
37451;SDS011;23314;51.114;6.900;2023-02-15T17:35:29;24.00;;;15.30;;
37451;SDS011;23314;51.114;6.900;2023-02-15T17:38:00;22.17;;;15.30;;
37451;SDS011;23314;51.114;6.900;2023-02-15T17:40:30;22.10;;;15.30;;
37451;SDS011;23314;51.114;6.900;2023-02-15T17:42:57;20.57;;;13.77;;